Aviation Digital Data Service (ADDS)

Output produced by METARs form (0539 UTC 11 December 2017)
found at http://www.aviationweather.gov/adds/metars/
 
METAR text: KILE 110456Z AUTO 25004KT 10SM CLR 08/M02 A3034 RMK AO2 SLP297 T00831017
Conditions at: KILE (KILLEEN MUNI , TX, US) observed 0456 UTC 11 December 2017
Temperature: 8.3°C (47°F)
Dewpoint: -1.7°C (29°F) [RH = 49%]
Pressure (altimeter): 30.34 inches Hg (1027.5 mb)
[Sea-level pressure: 1029.7 mb]
Winds: from the WSW (250 degrees) at 5 MPH (4 knots; 2.1 m/s)
Visibility: 10 or more miles (16+ km)
Ceiling: at least 12,000 feet AGL
Clouds: sky clear below 12,000 feet AGL
Weather: automated observation with no human augmentation;
there may or may not be significant weather present at this time